createdAt,value
2023-03-21T00:00:48.238Z,15.00
2023-03-21T00:03:24.015Z,14.80
2023-03-21T00:05:54.372Z,15.80
2023-03-21T00:08:26.181Z,14.80
2023-03-21T00:11:04.824Z,14.40
2023-03-21T00:13:38.617Z,14.80
2023-03-21T00:16:21.392Z,15.00
2023-03-21T00:18:55.638Z,13.50
2023-03-21T00:21:44.314Z,15.90
2023-03-21T00:24:17.600Z,13.10
2023-03-21T00:26:46.677Z,14.60
2023-03-21T00:29:15.667Z,16.60
2023-03-21T00:31:44.353Z,15.50
2023-03-21T00:36:47.172Z,14.80
2023-03-21T00:39:15.843Z,14.60
2023-03-21T00:41:44.786Z,13.40
2023-03-21T00:44:16.023Z,12.10
2023-03-21T00:47:00.535Z,12.70
2023-03-21T00:49:38.355Z,15.10
2023-03-21T00:52:27.294Z,13.80
2023-03-21T00:54:59.825Z,13.40
2023-03-21T00:57:38.592Z,12.60
2023-03-21T01:00:14.144Z,12.10
2023-03-21T01:03:08.512Z,13.50
2023-03-21T01:06:05.281Z,13.20
2023-03-21T01:08:52.352Z,13.40
2023-03-21T01:11:28.920Z,12.40
2023-03-21T01:14:10.698Z,12.20
2023-03-21T01:16:44.712Z,11.80
2023-03-21T01:19:26.362Z,10.40
2023-03-21T01:21:57.730Z,12.30
2023-03-21T01:24:27.039Z,11.00
2023-03-21T01:26:55.711Z,11.60
2023-03-21T01:29:24.509Z,12.40
2023-03-21T01:31:53.714Z,10.70
2023-03-21T01:34:22.581Z,11.10
2023-03-21T01:36:51.507Z,12.20
2023-03-21T01:39:22.111Z,12.90
2023-03-21T01:41:52.251Z,11.90
2023-03-21T01:44:23.788Z,9.80
2023-03-21T01:47:10.590Z,11.30
2023-03-21T01:50:03.648Z,10.40
2023-03-21T01:52:50.268Z,9.40
2023-03-21T01:55:27.148Z,11.70
2023-03-21T01:58:06.744Z,9.20
2023-03-21T02:00:48.492Z,9.20
2023-03-21T02:03:36.033Z,10.10
2023-03-21T02:06:32.020Z,19.30
2023-03-21T02:09:12.816Z,11.20
2023-03-21T02:11:46.614Z,10.30
2023-03-21T02:14:28.415Z,10.60
2023-03-21T02:17:28.134Z,9.20
2023-03-21T02:20:13.312Z,8.30
2023-03-21T02:23:05.856Z,8.30
2023-03-21T02:25:46.836Z,8.00
2023-03-21T02:28:58.508Z,8.90
2023-03-21T02:31:53.783Z,8.10
2023-03-21T02:34:51.584Z,8.40
2023-03-21T02:37:38.392Z,8.80
2023-03-21T02:40:15.703Z,7.70
2023-03-21T02:43:22.163Z,8.90
2023-03-21T02:46:05.006Z,9.40
2023-03-21T02:48:50.981Z,9.20
2023-03-21T02:51:25.068Z,10.20
2023-03-21T02:54:26.414Z,10.20
2023-03-21T02:56:56.073Z,10.00
2023-03-21T02:59:27.305Z,9.30
2023-03-21T03:01:56.700Z,10.00
2023-03-21T03:04:28.741Z,11.50
2023-03-21T03:07:01.483Z,10.80
2023-03-21T03:09:55.939Z,11.80
2023-03-21T03:12:47.274Z,13.00
2023-03-21T03:15:35.343Z,12.50
2023-03-21T03:18:12.697Z,12.40
2023-03-21T03:21:01.475Z,12.90
2023-03-21T03:24:03.791Z,13.20
2023-03-21T03:26:47.869Z,13.60
2023-03-21T03:29:19.509Z,13.50
2023-03-21T03:31:58.973Z,12.50
2023-03-21T03:34:39.797Z,12.90
2023-03-21T03:37:16.663Z,12.80
2023-03-21T03:40:17.114Z,13.40
2023-03-21T03:42:55.155Z,14.50
2023-03-21T03:45:37.453Z,15.40
2023-03-21T03:48:12.780Z,13.50
2023-03-21T03:51:10.077Z,13.70
2023-03-21T03:54:19.755Z,12.80
2023-03-21T03:56:49.303Z,12.50
2023-03-21T03:59:27.734Z,13.40
2023-03-21T04:02:15.212Z,12.50
2023-03-21T04:04:44.265Z,12.00
2023-03-21T04:07:13.989Z,13.10
2023-03-21T04:09:44.949Z,13.50
2023-03-21T04:12:17.799Z,14.10
2023-03-21T04:15:10.775Z,13.60
2023-03-21T04:17:43.037Z,13.30
2023-03-21T04:20:18.697Z,14.00
2023-03-21T04:22:56.799Z,14.40
2023-03-21T04:25:33.899Z,14.20
2023-03-21T04:28:04.596Z,15.00
2023-03-21T04:30:49.412Z,15.40
2023-03-21T04:33:27.465Z,14.30
2023-03-21T04:35:59.528Z,14.30
2023-03-21T04:38:31.604Z,15.30
2023-03-21T04:41:04.498Z,13.40
2023-03-21T04:43:33.190Z,14.30
2023-03-21T04:46:01.903Z,13.70
2023-03-21T04:48:31.109Z,14.40
2023-03-21T04:51:01.375Z,14.10
2023-03-21T04:53:30.837Z,14.00
2023-03-21T04:56:01.039Z,13.40
2023-03-21T04:58:30.818Z,13.90
2023-03-21T05:01:02.733Z,13.10
2023-03-21T05:03:34.681Z,13.60
2023-03-21T05:06:04.165Z,12.90
2023-03-21T05:08:33.039Z,13.60
2023-03-21T05:11:03.477Z,13.50
2023-03-21T05:13:32.159Z,14.60
2023-03-21T05:16:01.149Z,13.70
2023-03-21T05:18:30.752Z,14.90
2023-03-21T05:21:13.771Z,14.60
2023-03-21T05:23:42.379Z,14.90
2023-03-21T05:26:12.595Z,15.40
2023-03-21T05:28:48.253Z,15.60
2023-03-21T05:31:19.372Z,14.20
2023-03-21T05:33:49.311Z,14.90
2023-03-21T05:36:20.065Z,15.50
2023-03-21T05:38:49.336Z,14.70
2023-03-21T05:41:21.571Z,15.20
2023-03-21T05:43:50.419Z,14.20
2023-03-21T05:46:19.522Z,15.20
2023-03-21T05:48:49.195Z,15.10
2023-03-21T05:51:19.522Z,15.50
2023-03-21T05:53:49.006Z,15.30
2023-03-21T05:56:18.328Z,15.00
2023-03-21T05:58:53.385Z,14.90
2023-03-21T06:01:23.014Z,15.80
2023-03-21T06:04:13.347Z,15.70
2023-03-21T06:06:43.193Z,14.30
2023-03-21T06:09:14.114Z,14.90
2023-03-21T06:11:48.841Z,16.30
2023-03-21T06:14:25.813Z,17.00
2023-03-21T06:17:16.229Z,15.40
2023-03-21T06:19:49.961Z,16.90
2023-03-21T06:22:35.705Z,16.60
2023-03-21T06:25:07.796Z,16.70
2023-03-21T06:27:37.549Z,17.00
2023-03-21T06:30:09.277Z,17.10
2023-03-21T06:32:44.400Z,16.50
2023-03-21T06:35:15.751Z,17.50
2023-03-21T06:37:46.507Z,17.60
2023-03-21T06:40:15.334Z,17.90
2023-03-21T06:42:43.952Z,16.70
2023-03-21T06:45:12.848Z,17.60
2023-03-21T06:47:41.473Z,17.10
2023-03-21T06:50:15.596Z,18.10
2023-03-21T06:52:45.796Z,17.80
2023-03-21T06:55:14.589Z,16.90
2023-03-21T06:57:43.351Z,17.40
2023-03-21T07:00:13.360Z,16.90
2023-03-21T07:02:45.498Z,17.70
2023-03-21T07:05:18.047Z,17.50
2023-03-21T07:07:47.046Z,18.80
2023-03-21T07:10:16.110Z,18.50
2023-03-21T07:12:56.562Z,17.60
2023-03-21T07:15:39.007Z,17.00
2023-03-21T07:18:10.090Z,18.00
2023-03-21T07:20:38.801Z,17.40
2023-03-21T07:23:07.701Z,17.70
2023-03-21T07:25:36.794Z,17.10
2023-03-21T07:28:09.474Z,16.40
2023-03-21T07:30:38.201Z,16.10
2023-03-21T07:33:07.381Z,16.60
2023-03-21T07:35:37.645Z,17.50
2023-03-21T07:38:07.782Z,17.00
2023-03-21T07:40:36.579Z,17.50
2023-03-21T07:43:05.285Z,15.80
2023-03-21T07:45:36.548Z,15.80
2023-03-21T07:48:07.278Z,15.50
2023-03-21T07:50:36.359Z,15.50
2023-03-21T07:53:05.143Z,15.80
2023-03-21T07:55:36.831Z,16.30
2023-03-21T07:58:05.801Z,15.30
2023-03-21T08:00:34.481Z,16.40
2023-03-21T08:03:03.434Z,16.70
2023-03-21T08:05:38.307Z,17.30
2023-03-21T08:08:07.607Z,16.30
2023-03-21T08:10:36.612Z,16.70
2023-03-21T08:13:05.606Z,16.40
2023-03-21T08:15:34.177Z,15.40
2023-03-21T08:18:02.776Z,14.40
2023-03-21T08:20:31.565Z,14.50
2023-03-21T08:23:00.650Z,15.40
2023-03-21T08:25:29.251Z,15.60
2023-03-21T08:27:57.931Z,15.20
2023-03-21T08:30:28.859Z,15.40
2023-03-21T08:33:01.444Z,15.80
2023-03-21T08:35:31.896Z,15.50
2023-03-21T08:38:04.080Z,15.00
2023-03-21T08:40:33.742Z,14.90
2023-03-21T08:43:02.551Z,15.00
2023-03-21T08:45:31.919Z,14.60
2023-03-21T08:48:00.621Z,13.90
2023-03-21T08:50:31.989Z,14.30
2023-03-21T08:53:00.565Z,14.80
2023-03-21T08:55:29.142Z,15.10
2023-03-21T08:57:58.556Z,14.80
2023-03-21T09:00:27.544Z,12.90
2023-03-21T09:02:59.014Z,13.20
2023-03-21T09:05:28.723Z,14.10
2023-03-21T09:07:58.026Z,11.90
2023-03-21T09:10:26.693Z,13.40
2023-03-21T09:12:56.711Z,13.80
2023-03-21T09:15:29.050Z,12.00
2023-03-21T09:18:13.397Z,12.60
2023-03-21T09:20:45.251Z,12.70
2023-03-21T09:23:15.071Z,13.60
2023-03-21T09:25:46.380Z,13.90
2023-03-21T09:28:14.942Z,12.30
2023-03-21T09:30:43.941Z,12.90
2023-03-21T09:33:13.435Z,13.30
2023-03-21T09:35:43.102Z,11.80
2023-03-21T09:38:12.053Z,12.30
2023-03-21T09:40:49.541Z,12.60
2023-03-21T09:43:52.738Z,13.00
2023-03-21T09:46:51.975Z,14.10
2023-03-21T09:49:35.817Z,16.20
2023-03-21T09:52:49.931Z,14.70
2023-03-21T09:55:31.327Z,13.00
2023-03-21T09:58:33.286Z,13.70
2023-03-21T10:01:10.674Z,14.90
2023-03-21T10:03:39.282Z,14.80
2023-03-21T10:06:15.947Z,14.60
2023-03-21T10:08:48.898Z,15.60
2023-03-21T10:11:29.948Z,16.10
2023-03-21T10:14:12.561Z,14.80
2023-03-21T10:16:47.030Z,15.80
2023-03-21T10:19:19.739Z,14.30
2023-03-21T10:22:00.909Z,14.00
2023-03-21T10:24:34.463Z,14.60
2023-03-21T10:27:05.181Z,13.60
2023-03-21T10:29:43.541Z,13.80
2023-03-21T10:32:18.389Z,12.60
2023-03-21T10:37:26.496Z,12.80
2023-03-21T10:39:56.318Z,14.40
2023-03-21T10:42:29.871Z,13.90
2023-03-21T10:44:58.903Z,12.20
2023-03-21T10:47:31.456Z,11.60
2023-03-21T10:50:14.258Z,10.50
2023-03-21T10:52:53.843Z,11.20
2023-03-21T10:55:40.765Z,19.40
2023-03-21T10:58:27.467Z,12.50
2023-03-21T11:01:03.925Z,11.20
2023-03-21T11:03:47.040Z,10.60
2023-03-21T11:06:36.943Z,11.80
2023-03-21T11:09:14.335Z,33.90
2023-03-21T11:11:54.621Z,12.00
2023-03-21T11:14:39.366Z,9.10
2023-03-21T11:17:17.161Z,8.80
2023-03-21T11:20:06.227Z,9.10
2023-03-21T11:22:44.122Z,9.80
2023-03-21T11:25:33.093Z,9.30
2023-03-21T11:28:08.956Z,9.50
2023-03-21T11:30:37.545Z,9.90
2023-03-21T11:33:07.245Z,8.90
2023-03-21T11:35:39.622Z,9.00
2023-03-21T11:38:32.069Z,10.10
2023-03-21T11:41:03.259Z,8.80
2023-03-21T11:43:36.461Z,8.90
2023-03-21T11:46:09.757Z,10.90
2023-03-21T11:48:45.653Z,24.20
2023-03-21T11:51:28.587Z,14.70
2023-03-21T11:54:31.668Z,11.10
2023-03-21T11:57:50.635Z,9.00
2023-03-21T12:00:29.766Z,9.10
2023-03-21T12:03:24.075Z,8.30
2023-03-21T12:06:03.214Z,8.10
2023-03-21T12:09:13.360Z,8.00
2023-03-21T12:12:29.984Z,7.80
2023-03-21T12:15:26.091Z,8.20
2023-03-21T12:18:36.774Z,7.90
2023-03-21T12:21:43.741Z,7.90
2023-03-21T12:24:27.403Z,6.70
2023-03-21T12:27:11.218Z,6.70
2023-03-21T12:30:26.560Z,6.40
2023-03-21T12:33:13.748Z,7.40
2023-03-21T12:36:14.499Z,7.80
2023-03-21T12:38:57.684Z,7.10
2023-03-21T12:41:35.617Z,6.60
2023-03-21T12:44:16.502Z,6.50
2023-03-21T12:46:56.063Z,5.50
2023-03-21T12:49:56.836Z,6.50
2023-03-21T12:52:44.472Z,6.70
2023-03-21T12:55:29.028Z,6.40
2023-03-21T12:58:23.219Z,5.90
2023-03-21T13:00:56.568Z,6.30
2023-03-21T13:03:45.749Z,6.50
2023-03-21T13:06:18.449Z,6.60
2023-03-21T13:09:51.654Z,7.00
2023-03-21T13:12:56.597Z,5.70
2023-03-21T13:15:51.085Z,6.60
2023-03-21T13:18:43.632Z,7.20
2023-03-21T13:21:50.945Z,6.90
2023-03-21T13:24:34.251Z,8.10
2023-03-21T13:27:26.597Z,8.80
2023-03-21T13:30:17.459Z,7.30
2023-03-21T13:32:50.544Z,7.20
2023-03-21T13:35:38.776Z,8.10
2023-03-21T13:38:30.341Z,6.70
2023-03-21T13:41:17.590Z,6.90
2023-03-21T13:44:09.210Z,7.10
2023-03-21T13:46:53.986Z,7.20
2023-03-21T13:49:38.041Z,7.90
2023-03-21T13:52:09.295Z,7.10
2023-03-21T13:54:56.390Z,6.20
2023-03-21T13:57:27.757Z,6.70
2023-03-21T14:00:30.473Z,6.00
2023-03-21T14:03:18.291Z,5.70
2023-03-21T14:05:51.916Z,6.20
2023-03-21T14:08:31.309Z,6.60
2023-03-21T14:11:12.037Z,7.20
2023-03-21T14:13:50.905Z,6.50
2023-03-21T14:16:22.384Z,6.60
2023-03-21T14:18:59.702Z,6.90
2023-03-21T14:21:35.681Z,6.40
2023-03-21T14:24:13.787Z,6.50
2023-03-21T14:26:49.593Z,6.20
2023-03-21T14:29:35.769Z,6.00
2023-03-21T14:32:06.020Z,8.50
2023-03-21T14:34:36.425Z,6.70
2023-03-21T14:37:11.065Z,20.40
2023-03-21T14:39:39.625Z,9.30
2023-03-21T14:42:15.795Z,9.90
2023-03-21T14:44:55.158Z,8.90
2023-03-21T14:47:28.278Z,7.60
2023-03-21T14:49:58.420Z,7.60
2023-03-21T14:52:37.352Z,7.60
2023-03-21T14:55:17.210Z,7.30
2023-03-21T14:57:46.099Z,11.00
2023-03-21T15:00:30.406Z,7.80
2023-03-21T15:03:01.407Z,7.10
2023-03-21T15:05:37.768Z,9.00
2023-03-21T15:08:17.268Z,8.50
2023-03-21T15:11:07.733Z,7.60
2023-03-21T15:13:50.487Z,9.60
2023-03-21T15:16:20.110Z,9.00
2023-03-21T15:18:50.147Z,8.30
2023-03-21T15:21:32.861Z,6.80
2023-03-21T15:24:19.176Z,7.90
2023-03-21T15:26:50.155Z,8.20
2023-03-21T15:29:18.985Z,8.70
2023-03-21T15:31:48.636Z,9.70
2023-03-21T15:34:24.736Z,9.90
2023-03-21T15:37:02.162Z,12.40
2023-03-21T15:39:32.161Z,9.70
2023-03-21T15:42:27.879Z,11.90
2023-03-21T15:45:02.837Z,10.60
2023-03-21T15:47:59.626Z,10.50
2023-03-21T15:50:47.812Z,10.90
2023-03-21T15:53:19.738Z,14.90
2023-03-21T15:55:52.420Z,10.50
2023-03-21T15:58:26.355Z,9.40
2023-03-21T16:01:02.481Z,11.40
2023-03-21T16:03:36.591Z,10.80
2023-03-21T16:06:18.294Z,11.20
2023-03-21T16:08:53.550Z,10.80
2023-03-21T16:11:28.915Z,10.00
2023-03-21T16:13:57.595Z,9.40
2023-03-21T16:16:30.329Z,10.10
2023-03-21T16:19:01.456Z,10.30
2023-03-21T16:21:32.063Z,11.30
2023-03-21T16:24:02.365Z,11.90
2023-03-21T16:26:36.113Z,10.50
2023-03-21T16:29:08.581Z,18.40
2023-03-21T16:31:37.629Z,19.60
2023-03-21T16:34:07.291Z,13.20
2023-03-21T16:36:40.671Z,11.70
2023-03-21T16:39:18.874Z,21.10
2023-03-21T16:41:48.732Z,29.80
2023-03-21T16:44:18.501Z,21.10
2023-03-21T16:46:48.117Z,28.70
2023-03-21T16:49:34.615Z,12.00
2023-03-21T16:52:03.397Z,14.90
2023-03-21T16:54:31.982Z,15.70
2023-03-21T16:57:00.772Z,12.90
2023-03-21T16:59:29.564Z,11.60
2023-03-21T17:01:58.250Z,12.30
2023-03-21T17:04:26.935Z,13.70
2023-03-21T17:06:56.159Z,10.90
2023-03-21T17:09:27.553Z,11.30
2023-03-21T17:11:56.580Z,10.20
2023-03-21T17:14:25.374Z,9.80
2023-03-21T17:16:55.420Z,9.00
2023-03-21T17:19:26.626Z,12.30
2023-03-21T17:21:55.630Z,12.00
2023-03-21T17:24:26.576Z,10.40
2023-03-21T17:26:55.718Z,10.40
2023-03-21T17:29:24.246Z,10.40
2023-03-21T17:31:53.828Z,10.80
2023-03-21T17:34:22.674Z,13.50
2023-03-21T17:36:51.333Z,12.90
2023-03-21T17:39:27.545Z,10.60
2023-03-21T17:41:57.166Z,10.20
2023-03-21T17:44:25.992Z,9.60
2023-03-21T17:46:54.787Z,10.40
2023-03-21T17:49:23.827Z,9.00
2023-03-21T17:51:53.806Z,9.50
2023-03-21T17:54:22.586Z,8.50
2023-03-21T17:56:52.005Z,9.20
2023-03-21T17:59:20.887Z,9.20
2023-03-21T18:01:49.915Z,9.40
2023-03-21T18:04:20.111Z,9.50
2023-03-21T18:06:48.683Z,8.80
2023-03-21T18:09:21.510Z,13.10
2023-03-21T18:11:50.561Z,9.40
2023-03-21T18:14:27.899Z,7.90
2023-03-21T18:16:57.868Z,8.10
2023-03-21T18:19:27.490Z,10.80
2023-03-21T18:21:56.323Z,7.50
2023-03-21T18:24:25.262Z,7.30
2023-03-21T18:26:54.783Z,8.50
2023-03-21T18:32:12.340Z,6.80
2023-03-21T18:34:41.959Z,6.80
2023-03-21T18:37:13.253Z,6.90
2023-03-21T18:39:44.349Z,7.20
2023-03-21T18:42:17.911Z,6.80
2023-03-21T18:44:48.374Z,7.20
2023-03-21T18:47:18.166Z,8.20
2023-03-21T18:50:14.007Z,6.60
2023-03-21T18:52:36.790Z,9.20
2023-03-21T18:55:07.065Z,11.80
2023-03-21T18:57:38.172Z,13.60
2023-03-21T19:00:17.230Z,11.60
2023-03-21T19:03:02.326Z,10.50
2023-03-21T19:05:42.563Z,44.50
2023-03-21T19:08:11.346Z,28.00
2023-03-21T19:10:41.045Z,26.50
2023-03-21T19:13:09.953Z,23.80
2023-03-21T19:15:39.339Z,17.30
2023-03-21T19:18:53.863Z,19.50
2023-03-21T19:21:01.668Z,26.20
2023-03-21T19:23:40.914Z,13.60
2023-03-21T19:26:19.264Z,22.50
2023-03-21T19:28:48.407Z,13.60
2023-03-21T19:31:18.360Z,9.50
2023-03-21T19:33:48.623Z,6.60
2023-03-21T19:36:22.500Z,9.10
2023-03-21T19:38:52.449Z,10.50
2023-03-21T19:41:21.724Z,12.40
2023-03-21T19:43:55.243Z,8.60
2023-03-21T19:46:25.694Z,35.10
2023-03-21T19:48:56.871Z,41.10
2023-03-21T19:51:30.064Z,17.50
2023-03-21T19:54:03.988Z,18.50
2023-03-21T19:56:34.580Z,14.90
2023-03-21T19:59:05.055Z,17.20
2023-03-21T20:01:35.170Z,26.10
2023-03-21T20:04:06.009Z,17.80
2023-03-21T20:06:36.254Z,10.60
2023-03-21T20:09:47.178Z,12.50
2023-03-21T20:11:56.756Z,8.60
2023-03-21T20:14:26.691Z,9.70
2023-03-21T20:16:57.768Z,12.40
2023-03-21T20:19:27.439Z,10.20
2023-03-21T20:21:59.910Z,8.90
2023-03-21T20:24:32.071Z,22.70
2023-03-21T20:27:01.055Z,32.80
2023-03-21T20:32:19.030Z,22.00
2023-03-21T20:34:47.906Z,19.90
2023-03-21T20:37:16.824Z,27.80
2023-03-21T20:39:46.046Z,18.30
2023-03-21T20:42:14.680Z,11.60
2023-03-21T20:45:00.543Z,17.90
2023-03-21T20:47:29.567Z,13.90
2023-03-21T20:49:58.899Z,19.90
2023-03-21T20:55:18.157Z,21.30
2023-03-21T20:57:48.548Z,29.80
2023-03-21T21:00:18.177Z,22.60
2023-03-21T21:02:49.500Z,15.90
2023-03-21T21:05:35.477Z,15.10
2023-03-21T21:08:04.425Z,13.00
2023-03-21T21:10:33.670Z,11.90
2023-03-21T21:13:03.237Z,14.70
2023-03-21T21:15:33.668Z,12.60
2023-03-21T21:18:05.999Z,32.70
2023-03-21T21:20:38.946Z,13.30
2023-03-21T21:23:09.635Z,10.10
2023-03-21T21:25:38.552Z,10.60
2023-03-21T21:28:09.810Z,9.50
2023-03-21T21:30:41.799Z,11.00
2023-03-21T21:33:10.685Z,11.70
2023-03-21T21:35:39.784Z,10.30
2023-03-21T21:38:08.358Z,11.60
2023-03-21T21:40:37.678Z,10.30
2023-03-21T21:43:06.525Z,9.50
2023-03-21T21:45:35.316Z,10.00
2023-03-21T21:48:04.216Z,9.50
2023-03-21T21:50:33.323Z,8.90
2023-03-21T21:53:04.140Z,9.70
2023-03-21T21:55:36.511Z,10.30
2023-03-21T21:58:08.684Z,9.30
2023-03-21T22:00:37.495Z,10.40
2023-03-21T22:03:06.388Z,11.30
2023-03-21T22:05:34.998Z,9.40
2023-03-21T22:08:04.313Z,9.40
2023-03-21T22:10:33.876Z,9.60
2023-03-21T22:13:02.542Z,10.00
2023-03-21T22:15:33.374Z,10.30
2023-03-21T22:18:01.961Z,9.80
2023-03-21T22:20:30.750Z,11.00
2023-03-21T22:22:59.950Z,11.30
2023-03-21T22:25:29.044Z,9.80
2023-03-21T22:27:57.940Z,13.60
2023-03-21T22:30:26.522Z,10.60
2023-03-21T22:33:08.575Z,10.40
2023-03-21T22:35:38.726Z,10.30
2023-03-21T22:38:07.333Z,10.00
2023-03-21T22:40:36.134Z,10.80
2023-03-21T22:43:04.811Z,9.50
2023-03-21T22:45:35.111Z,10.60
2023-03-21T22:48:04.966Z,10.80
2023-03-21T22:50:33.534Z,11.10
2023-03-21T22:53:02.121Z,10.40
2023-03-21T22:55:31.012Z,11.70
2023-03-21T22:57:59.703Z,10.10
2023-03-21T23:00:28.341Z,10.10
2023-03-21T23:02:58.093Z,10.90
2023-03-21T23:05:27.191Z,10.80
2023-03-21T23:07:55.885Z,12.10
2023-03-21T23:10:24.664Z,12.90
2023-03-21T23:12:53.147Z,12.30
2023-03-21T23:15:21.733Z,11.70
2023-03-21T23:17:50.417Z,11.50
2023-03-21T23:20:19.444Z,11.20
2023-03-21T23:22:48.106Z,10.40
2023-03-21T23:25:17.224Z,10.90
2023-03-21T23:27:45.786Z,11.30
2023-03-21T23:30:14.781Z,10.00
2023-03-21T23:32:43.471Z,10.70
2023-03-21T23:35:12.354Z,11.70
2023-03-21T23:37:50.278Z,11.40
2023-03-21T23:40:20.580Z,12.10
2023-03-21T23:42:49.090Z,12.10
2023-03-21T23:45:17.845Z,11.60
2023-03-21T23:47:46.356Z,11.00
2023-03-21T23:50:14.921Z,11.40
2023-03-21T23:52:44.955Z,12.00
2023-03-21T23:55:13.937Z,12.40
2023-03-21T23:57:44.090Z,11.60
